Time;durP1;ratioP1;P1;durP2;ratioP2;P2;SDS_P1;SDS_P2;PMS_P1;PMS_P2;Temp;Humidity;BMP_temperature;BMP_pressure;BME280_temperature;BME280_humidity;BME280_pressure;Samples;Min_cycle;Max_cycle;Signal;HPM_P1;HPM_P2
2023/01/08 00:01:06;;;;;;;;;;;11.00;99.90;;;;;;5054895;28;20378;-63
2023/01/08 00:03:32;;;;;;;;;;;11.00;99.90;;;;;;5039339;28;19920;-63
2023/01/08 00:06:20;;;;;;;;;;;11.00;99.90;;;;;;5036533;28;20571;-63
2023/01/08 00:08:45;;;;;;;;;;;11.00;99.90;;;;;;5060495;28;20912;-63
2023/01/08 00:11:14;;;;;;;;;;;11.00;99.90;;;;;;5060999;28;19913;-63
2023/01/08 00:13:45;;;;;;;;;;;11.00;99.90;;;;;;5016682;28;20271;-64
2023/01/08 00:16:15;;;;;;;;;;;11.10;99.90;;;;;;5039506;28;19920;-64
2023/01/08 00:18:44;;;;;;;;;;;11.10;99.90;;;;;;5036226;28;19917;-61
2023/01/08 00:21:13;;;;;;;;;;;11.00;99.90;;;;;;5053811;28;20381;-62
2023/01/08 00:23:38;;;;;;;;;;;11.00;99.90;;;;;;5021205;28;19967;-63
2023/01/08 00:26:05;;;;;;;;;;;11.00;99.90;;;;;;5066782;28;20290;-63
2023/01/08 00:28:31;;;;;;;;;;;10.90;99.90;;;;;;5054876;28;20496;-62
2023/01/08 00:30:57;;;;;;;;;;;11.00;99.90;;;;;;5053692;28;19920;-64
2023/01/08 00:33:25;;;;;;;;;;;10.90;99.90;;;;;;5038140;28;19916;-64
2023/01/08 00:35:55;;;;;;;;;;;10.90;99.90;;;;;;5058343;28;20424;-62
2023/01/08 00:38:25;;;;;;;;;;;11.00;99.90;;;;;;5029750;28;20012;-63
2023/01/08 00:40:53;;;;;;;;;;;11.00;99.90;;;;;;5032897;28;19913;-63
2023/01/08 00:43:24;;;;;;;;;;;11.00;99.90;;;;;;5029511;28;19913;-61
2023/01/08 00:45:52;;;;;;;;;;;11.00;99.90;;;;;;5047886;28;19913;-63
2023/01/08 00:48:21;;;;;;;;;;;11.00;99.90;;;;;;5031984;28;19913;-63
2023/01/08 00:51:12;;;;;;;;;;;11.00;99.90;;;;;;5022570;28;19920;-63
2023/01/08 00:53:38;;;;;;;;;;;11.00;99.90;;;;;;5037620;28;19924;-63
2023/01/08 00:56:07;;;;;;;;;;;11.00;99.90;;;;;;5037038;28;19921;-61
2023/01/08 00:58:33;;;;;;;;;;;11.00;99.90;;;;;;5036185;28;19913;-62
2023/01/08 01:00:58;;;;;;;;;;;10.90;99.90;;;;;;5028002;28;19912;-61
2023/01/08 01:03:24;;;;;;;;;;;11.00;99.90;;;;;;5038162;28;20050;-64
2023/01/08 01:06:03;;;;;;;;;;;11.00;99.90;;;;;;5032678;28;19913;-62
2023/01/08 01:08:32;;;;;;;;;;;11.00;99.90;;;;;;5035041;28;20007;-63
2023/01/08 01:11:10;;;;;;;;;;;11.00;99.90;;;;;;5039424;28;20378;-62
2023/01/08 01:13:44;;;;;;;;;;;11.10;99.90;;;;;;5035005;28;19966;-64
2023/01/08 01:16:10;;;;;;;;;;;11.10;99.90;;;;;;5033932;28;19913;-62
2023/01/08 01:18:43;;;;;;;;;;;11.10;99.90;;;;;;5037126;28;20306;-60
2023/01/08 01:21:09;;;;;;;;;;;11.10;99.90;;;;;;5016702;28;19933;-64
2023/01/08 01:23:35;;;;;;;;;;;11.10;99.90;;;;;;5035540;28;19921;-62
2023/01/08 01:26:03;;;;;;;;;;;11.10;99.90;;;;;;5052361;28;19916;-62
2023/01/08 01:28:28;;;;;;;;;;;11.10;99.90;;;;;;5054448;28;19943;-63
2023/01/08 01:30:57;;;;;;;;;;;11.10;99.90;;;;;;5029535;28;20337;-64
2023/01/08 01:33:23;;;;;;;;;;;11.10;99.90;;;;;;5064773;28;20391;-63
2023/01/08 01:35:57;;;;;;;;;;;11.10;99.90;;;;;;5050602;28;20005;-64
2023/01/08 01:38:23;;;;;;;;;;;11.10;99.90;;;;;;5033667;28;19919;-64
2023/01/08 01:40:48;;;;;;;;;;;11.10;99.90;;;;;;5050632;28;19913;-60
2023/01/08 01:43:36;;;;;;;;;;;11.10;99.90;;;;;;5049705;28;19952;-63
2023/01/08 01:46:11;;;;;;;;;;;11.10;99.90;;;;;;5049528;28;19916;-65
2023/01/08 01:48:36;;;;;;;;;;;11.00;99.90;;;;;;5039827;28;19984;-63
2023/01/08 01:51:05;;;;;;;;;;;11.10;99.90;;;;;;5066119;28;19962;-64
2023/01/08 01:53:33;;;;;;;;;;;11.10;99.90;;;;;;5052242;28;19913;-63
2023/01/08 01:56:02;;;;;;;;;;;11.10;99.90;;;;;;5032011;28;19917;-62
2023/01/08 01:58:32;;;;;;;;;;;11.20;99.90;;;;;;5045891;28;19969;-65
2023/01/08 02:01:02;;;;;;;;;;;11.10;99.90;;;;;;5037831;28;20377;-61
2023/01/08 02:03:29;;;;;;;;;;;11.10;99.90;;;;;;5031855;28;19913;-64
2023/01/08 02:06:02;;;;;;;;;;;11.00;99.90;;;;;;5039610;28;19912;-65
2023/01/08 02:08:54;;;;;;;;;;;11.00;99.90;;;;;;5030965;28;19960;-62
2023/01/08 02:11:23;;;;;;;;;;;10.90;99.90;;;;;;5025670;28;19921;-61
2023/01/08 02:14:02;;;;;;;;;;;10.80;99.90;;;;;;5036304;28;19927;-63
2023/01/08 02:16:33;;;;;;;;;;;10.80;99.90;;;;;;5032148;28;19913;-63
2023/01/08 02:19:06;;;;;;;;;;;10.70;99.90;;;;;;5031978;28;19920;-63
2023/01/08 02:21:37;;;;;;;;;;;10.60;99.90;;;;;;5030476;28;19924;-59
2023/01/08 02:24:15;;;;;;;;;;;10.60;99.90;;;;;;5038147;28;20382;-64
2023/01/08 02:26:43;;;;;;;;;;;10.60;99.90;;;;;;5054687;28;20000;-63
2023/01/08 02:29:16;;;;;;;;;;;10.70;99.90;;;;;;5026966;28;19913;-63
2023/01/08 02:31:45;;;;;;;;;;;10.70;99.90;;;;;;5058403;28;19919;-64
2023/01/08 02:34:14;;;;;;;;;;;10.70;99.90;;;;;;5038077;28;19921;-62
2023/01/08 02:36:58;;;;;;;;;;;10.70;99.90;;;;;;5039607;28;20366;-62
2023/01/08 02:39:42;;;;;;;;;;;10.60;99.90;;;;;;5035388;28;20298;-64
2023/01/08 02:42:08;;;;;;;;;;;10.60;99.90;;;;;;5033034;28;19944;-62
2023/01/08 02:44:58;;;;;;;;;;;10.50;99.90;;;;;;5043250;28;20302;-64
2023/01/08 02:47:26;;;;;;;;;;;10.50;99.90;;;;;;5050649;28;20453;-64
2023/01/08 02:50:11;;;;;;;;;;;10.50;99.90;;;;;;5033449;28;19912;-63
2023/01/08 02:52:41;;;;;;;;;;;10.50;99.90;;;;;;5050093;28;20008;-63
2023/01/08 02:55:08;;;;;;;;;;;10.50;99.90;;;;;;5031204;28;19924;-63
2023/01/08 02:57:34;;;;;;;;;;;10.50;99.90;;;;;;5032586;28;20004;-65
2023/01/08 03:00:02;;;;;;;;;;;10.40;99.90;;;;;;5048107;28;19924;-64
2023/01/08 03:02:30;;;;;;;;;;;10.40;99.90;;;;;;5029887;28;19913;-64
2023/01/08 03:04:58;;;;;;;;;;;10.50;99.90;;;;;;5053120;28;19913;-63
2023/01/08 03:07:24;;;;;;;;;;;10.40;99.90;;;;;;5057817;28;19920;-63
2023/01/08 03:09:55;;;;;;;;;;;10.50;99.90;;;;;;5035379;28;20031;-64
2023/01/08 03:12:38;;;;;;;;;;;10.40;99.90;;;;;;5052234;28;19913;-63
2023/01/08 03:15:06;;;;;;;;;;;10.40;99.90;;;;;;5039151;28;19917;-63
2023/01/08 03:17:41;;;;;;;;;;;10.40;99.90;;;;;;5058071;28;19912;-63
2023/01/08 03:20:19;;;;;;;;;;;10.30;99.90;;;;;;5059415;28;19971;-63
2023/01/08 03:23:05;;;;;;;;;;;10.30;99.90;;;;;;5055191;28;20496;-63
2023/01/08 03:25:36;;;;;;;;;;;10.20;99.90;;;;;;5036574;28;20010;-64
2023/01/08 03:28:06;;;;;;;;;;;10.20;99.90;;;;;;5039105;28;19913;-64
2023/01/08 03:30:42;;;;;;;;;;;10.20;99.90;;;;;;5036626;28;19944;-64
2023/01/08 03:33:12;;;;;;;;;;;10.30;99.90;;;;;;5049976;28;20374;-64
2023/01/08 03:35:39;;;;;;;;;;;10.30;99.90;;;;;;5035072;28;19940;-64
2023/01/08 03:38:16;;;;;;;;;;;10.20;99.90;;;;;;5052232;28;20372;-63
2023/01/08 03:40:47;;;;;;;;;;;10.20;99.90;;;;;;5034418;28;19916;-64
2023/01/08 03:43:16;;;;;;;;;;;10.30;99.90;;;;;;5034760;28;19920;-63
2023/01/08 03:45:52;;;;;;;;;;;10.20;99.90;;;;;;5032429;28;19999;-63
2023/01/08 03:48:20;;;;;;;;;;;10.20;99.90;;;;;;5036276;28;20366;-62
2023/01/08 03:50:48;;;;;;;;;;;10.20;99.90;;;;;;5050855;28;19960;-62
2023/01/08 03:53:16;;;;;;;;;;;10.30;99.90;;;;;;5034256;28;19917;-63
2023/01/08 03:55:44;;;;;;;;;;;10.20;99.90;;;;;;5031591;28;19991;-63
2023/01/08 03:58:13;;;;;;;;;;;10.20;99.90;;;;;;5052988;28;19966;-63
2023/01/08 04:00:39;;;;;;;;;;;10.20;99.90;;;;;;5035737;28;20294;-63
2023/01/08 04:03:05;;;;;;;;;;;10.20;99.90;;;;;;5053112;28;19917;-63
2023/01/08 04:05:36;;;;;;;;;;;10.20;99.90;;;;;;5031585;28;19919;-64
2023/01/08 04:08:04;;;;;;;;;;;10.20;99.90;;;;;;5051809;28;20374;-64
2023/01/08 04:10:29;;;;;;;;;;;10.20;99.90;;;;;;5023614;28;19913;-64
2023/01/08 04:12:55;;;;;;;;;;;10.20;99.90;;;;;;5023685;28;19913;-61
2023/01/08 04:15:20;;;;;;;;;;;10.20;99.90;;;;;;5029922;28;19950;-64
2023/01/08 04:17:46;;;;;;;;;;;10.20;99.90;;;;;;5048550;28;20384;-63
2023/01/08 04:20:12;;;;;;;;;;;10.20;99.90;;;;;;5041316;28;19924;-64
2023/01/08 04:22:37;;;;;;;;;;;10.10;99.90;;;;;;5049016;28;19966;-64
2023/01/08 04:25:03;;;;;;;;;;;10.20;99.90;;;;;;5033199;28;19970;-63
2023/01/08 04:27:28;;;;;;;;;;;10.20;99.90;;;;;;5033251;28;19955;-63
2023/01/08 04:29:54;;;;;;;;;;;10.20;99.90;;;;;;5058750;28;19920;-64
2023/01/08 04:32:20;;;;;;;;;;;10.20;99.90;;;;;;5035249;28;19920;-64
2023/01/08 04:34:45;;;;;;;;;;;10.20;99.90;;;;;;5047659;28;19923;-62
2023/01/08 04:37:11;;;;;;;;;;;10.30;99.90;;;;;;5054614;28;19919;-63
2023/01/08 04:39:36;;;;;;;;;;;10.30;99.90;;;;;;5029491;28;19913;-63
2023/01/08 04:42:02;;;;;;;;;;;10.30;99.90;;;;;;5052711;28;20282;-62
2023/01/08 04:44:27;;;;;;;;;;;10.30;99.90;;;;;;5055183;28;19913;-62
2023/01/08 04:46:53;;;;;;;;;;;10.30;99.90;;;;;;5053304;28;19966;-62
2023/01/08 04:49:18;;;;;;;;;;;10.30;99.90;;;;;;5053602;28;20272;-63
2023/01/08 04:51:44;;;;;;;;;;;10.30;99.90;;;;;;5034508;28;20333;-62
2023/01/08 04:54:09;;;;;;;;;;;10.30;99.90;;;;;;5051928;28;20329;-63
2023/01/08 04:56:35;;;;;;;;;;;10.30;99.90;;;;;;5031801;28;19923;-63
2023/01/08 04:59:00;;;;;;;;;;;10.30;99.90;;;;;;5036375;28;19967;-63
2023/01/08 05:01:27;;;;;;;;;;;10.20;99.90;;;;;;5022333;28;20006;-63
2023/01/08 05:04:00;;;;;;;;;;;10.30;99.90;;;;;;5052450;28;19956;-63
2023/01/08 05:06:26;;;;;;;;;;;10.40;99.90;;;;;;5050616;28;19913;-63
2023/01/08 05:08:52;;;;;;;;;;;10.30;99.90;;;;;;5052764;28;19913;-63
2023/01/08 05:11:18;;;;;;;;;;;10.30;99.90;;;;;;5052415;28;20363;-64
2023/01/08 05:13:46;;;;;;;;;;;10.30;99.90;;;;;;5050407;28;19917;-63
2023/01/08 05:16:11;;;;;;;;;;;10.30;99.90;;;;;;5053058;28;19916;-63
2023/01/08 05:18:37;;;;;;;;;;;10.30;99.90;;;;;;5057495;28;19913;-63
2023/01/08 05:21:03;;;;;;;;;;;10.30;99.90;;;;;;5032302;28;20290;-63
2023/01/08 05:23:30;;;;;;;;;;;10.30;99.90;;;;;;5053805;28;19913;-63
2023/01/08 05:25:56;;;;;;;;;;;10.30;99.90;;;;;;5048407;28;19921;-63
2023/01/08 05:28:22;;;;;;;;;;;10.30;99.90;;;;;;5032020;28;19921;-63
2023/01/08 05:30:48;;;;;;;;;;;10.20;99.90;;;;;;5046284;28;20043;-63
2023/01/08 05:33:13;;;;;;;;;;;10.20;99.90;;;;;;5018282;28;20285;-63
2023/01/08 05:35:39;;;;;;;;;;;10.20;99.90;;;;;;5048510;28;19916;-63
2023/01/08 05:38:04;;;;;;;;;;;10.10;99.90;;;;;;5032160;28;19920;-63
2023/01/08 05:40:30;;;;;;;;;;;10.10;99.90;;;;;;5051889;28;20064;-63
2023/01/08 05:42:58;;;;;;;;;;;10.20;99.90;;;;;;5067595;28;19909;-63
2023/01/08 05:45:23;;;;;;;;;;;10.20;99.90;;;;;;5034235;28;19915;-62
2023/01/08 05:47:49;;;;;;;;;;;10.30;99.90;;;;;;5067805;28;19909;-63
2023/01/08 05:50:14;;;;;;;;;;;10.30;99.90;;;;;;5052391;28;19913;-63
2023/01/08 05:52:40;;;;;;;;;;;10.40;99.90;;;;;;5049581;28;19912;-63
2023/01/08 05:55:05;;;;;;;;;;;10.40;99.90;;;;;;5051023;28;19917;-63
2023/01/08 05:57:31;;;;;;;;;;;10.30;99.90;;;;;;5050056;28;19935;-63
2023/01/08 05:59:56;;;;;;;;;;;10.20;99.90;;;;;;5052152;28;19913;-63
2023/01/08 06:02:22;;;;;;;;;;;10.20;99.90;;;;;;5046788;28;19912;-62
2023/01/08 06:04:47;;;;;;;;;;;10.10;99.90;;;;;;5052174;28;19923;-63
2023/01/08 06:07:13;;;;;;;;;;;10.10;99.90;;;;;;5048631;28;19943;-63
2023/01/08 06:09:38;;;;;;;;;;;10.10;99.90;;;;;;5044439;28;19913;-63
2023/01/08 06:12:03;;;;;;;;;;;10.00;99.90;;;;;;5050609;28;19917;-62
2023/01/08 06:14:29;;;;;;;;;;;10.00;99.90;;;;;;5050248;28;19928;-62
2023/01/08 06:16:54;;;;;;;;;;;10.00;99.90;;;;;;5049117;28;19912;-63
2023/01/08 06:19:20;;;;;;;;;;;10.00;99.90;;;;;;5053863;28;19913;-62
2023/01/08 06:21:45;;;;;;;;;;;9.90;99.90;;;;;;5046737;28;19919;-62
2023/01/08 06:24:11;;;;;;;;;;;10.00;99.90;;;;;;5048845;28;19924;-63
2023/01/08 06:26:36;;;;;;;;;;;9.90;99.90;;;;;;5054438;28;19964;-63
2023/01/08 06:29:02;;;;;;;;;;;9.90;99.90;;;;;;5051196;28;19974;-62
2023/01/08 06:31:27;;;;;;;;;;;9.90;99.90;;;;;;5050431;28;19913;-62
2023/01/08 06:33:52;;;;;;;;;;;9.90;99.90;;;;;;5051816;28;20003;-62
2023/01/08 06:36:18;;;;;;;;;;;9.90;99.90;;;;;;5050240;28;20019;-63
2023/01/08 06:38:43;;;;;;;;;;;9.80;99.90;;;;;;5049629;28;19917;-62
2023/01/08 06:41:09;;;;;;;;;;;9.80;99.90;;;;;;5059202;28;19917;-62
2023/01/08 06:43:35;;;;;;;;;;;9.80;99.90;;;;;;5055229;28;20431;-63
2023/01/08 06:46:00;;;;;;;;;;;9.80;99.90;;;;;;5051593;28;19956;-62
2023/01/08 06:48:26;;;;;;;;;;;9.80;99.90;;;;;;5048704;28;19992;-63
2023/01/08 06:50:52;;;;;;;;;;;9.90;99.90;;;;;;5027319;28;19913;-63
2023/01/08 06:53:17;;;;;;;;;;;9.90;99.90;;;;;;5042862;28;19948;-62
2023/01/08 06:55:43;;;;;;;;;;;9.90;99.90;;;;;;5043069;28;19916;-63
2023/01/08 06:58:09;;;;;;;;;;;10.00;99.90;;;;;;5047060;28;19921;-63
2023/01/08 07:00:34;;;;;;;;;;;10.10;99.90;;;;;;5045422;28;19939;-62
2023/01/08 07:03:00;;;;;;;;;;;10.10;99.90;;;;;;5041647;28;19921;-63
2023/01/08 07:05:25;;;;;;;;;;;10.10;99.90;;;;;;5043791;28;20386;-63
2023/01/08 07:07:50;;;;;;;;;;;10.10;99.90;;;;;;5040634;28;20272;-63
2023/01/08 07:10:16;;;;;;;;;;;10.10;99.90;;;;;;5045125;28;19912;-63
2023/01/08 07:12:41;;;;;;;;;;;10.20;99.90;;;;;;5040602;28;19913;-62
2023/01/08 07:15:07;;;;;;;;;;;10.20;99.90;;;;;;5042814;28;19920;-62
2023/01/08 07:17:33;;;;;;;;;;;10.30;99.90;;;;;;5044510;28;19913;-63
2023/01/08 07:19:58;;;;;;;;;;;10.30;99.90;;;;;;5043077;28;19913;-63
2023/01/08 07:22:24;;;;;;;;;;;10.20;99.90;;;;;;5045679;28;19967;-63
2023/01/08 07:24:50;;;;;;;;;;;10.10;99.90;;;;;;5046414;28;20321;-62
2023/01/08 07:27:16;;;;;;;;;;;10.10;99.90;;;;;;5045437;28;19924;-62
2023/01/08 07:29:41;;;;;;;;;;;10.20;99.90;;;;;;5043122;28;19913;-62
2023/01/08 07:32:06;;;;;;;;;;;10.20;99.90;;;;;;5044625;28;19913;-63
2023/01/08 07:34:33;;;;;;;;;;;10.10;99.90;;;;;;5045724;28;19929;-63
2023/01/08 07:36:59;;;;;;;;;;;10.10;99.90;;;;;;5049053;28;19913;-61
2023/01/08 07:39:24;;;;;;;;;;;10.10;99.90;;;;;;5059438;28;19962;-63
2023/01/08 07:41:50;;;;;;;;;;;10.00;99.90;;;;;;5048093;28;19917;-62
2023/01/08 07:44:15;;;;;;;;;;;10.00;99.90;;;;;;5028640;28;20302;-61
2023/01/08 07:46:41;;;;;;;;;;;9.90;99.90;;;;;;5043241;28;19983;-62
2023/01/08 07:49:06;;;;;;;;;;;9.90;99.90;;;;;;5054358;28;19913;-62
2023/01/08 07:51:32;;;;;;;;;;;10.00;99.90;;;;;;5052961;28;19913;-62
2023/01/08 07:53:57;;;;;;;;;;;9.90;99.90;;;;;;5051846;28;20281;-62
2023/01/08 07:56:24;;;;;;;;;;;9.90;99.90;;;;;;5053563;28;19912;-63
2023/01/08 07:58:49;;;;;;;;;;;9.90;99.90;;;;;;5054221;28;20565;-63
2023/01/08 08:01:15;;;;;;;;;;;9.80;99.90;;;;;;5055130;28;19909;-63
2023/01/08 08:03:41;;;;;;;;;;;9.80;99.90;;;;;;5057500;28;20362;-62
2023/01/08 08:06:06;;;;;;;;;;;9.80;99.90;;;;;;5053855;28;19919;-62
2023/01/08 08:08:32;;;;;;;;;;;9.80;99.90;;;;;;5052894;28;19912;-63
2023/01/08 08:10:58;;;;;;;;;;;9.80;99.90;;;;;;5057584;28;19912;-62
2023/01/08 08:13:23;;;;;;;;;;;9.90;99.90;;;;;;5054754;28;19967;-63
2023/01/08 08:15:48;;;;;;;;;;;9.90;99.90;;;;;;5051851;28;19924;-62
2023/01/08 08:18:14;;;;;;;;;;;9.90;99.90;;;;;;5055311;28;20602;-64
2023/01/08 08:20:39;;;;;;;;;;;9.90;99.90;;;;;;5054233;28;20283;-64
2023/01/08 08:23:09;;;;;;;;;;;9.80;99.90;;;;;;5055335;28;20294;-63
2023/01/08 08:25:34;;;;;;;;;;;9.90;99.90;;;;;;5048746;28;20333;-63
2023/01/08 08:28:00;;;;;;;;;;;9.90;99.90;;;;;;5051675;28;19990;-63
2023/01/08 08:30:27;;;;;;;;;;;9.90;99.90;;;;;;5053112;28;19920;-63
2023/01/08 08:32:53;;;;;;;;;;;9.90;99.90;;;;;;5053335;28;20386;-63
2023/01/08 08:35:18;;;;;;;;;;;9.90;99.90;;;;;;5054796;28;19967;-64
2023/01/08 08:37:44;;;;;;;;;;;9.90;99.90;;;;;;5054886;28;19916;-63
2023/01/08 08:40:09;;;;;;;;;;;9.90;99.90;;;;;;5054071;28;19916;-63
2023/01/08 08:42:35;;;;;;;;;;;9.90;99.90;;;;;;5053564;28;19916;-63
2023/01/08 08:45:00;;;;;;;;;;;9.90;99.90;;;;;;5052981;28;19970;-65
2023/01/08 08:47:26;;;;;;;;;;;10.00;99.90;;;;;;5052936;28;19924;-63
2023/01/08 08:49:51;;;;;;;;;;;9.90;99.90;;;;;;5051643;28;20374;-63
2023/01/08 08:52:17;;;;;;;;;;;9.90;99.90;;;;;;5051046;28;19912;-63
2023/01/08 08:54:42;;;;;;;;;;;9.90;99.90;;;;;;5051361;28;19978;-63
2023/01/08 08:57:08;;;;;;;;;;;9.90;99.90;;;;;;5051158;28;19924;-63
2023/01/08 08:59:34;;;;;;;;;;;9.90;99.90;;;;;;5052838;28;19958;-63
2023/01/08 09:02:00;;;;;;;;;;;10.00;99.90;;;;;;5046567;28;20329;-64
2023/01/08 09:04:28;;;;;;;;;;;10.00;99.90;;;;;;5052474;28;19912;-64
2023/01/08 09:06:53;;;;;;;;;;;10.10;99.90;;;;;;5051363;28;19960;-63
2023/01/08 09:09:18;;;;;;;;;;;10.10;99.90;;;;;;5051239;28;19955;-64
2023/01/08 09:11:44;;;;;;;;;;;10.10;99.90;;;;;;5052086;28;20001;-64
2023/01/08 09:14:09;;;;;;;;;;;10.10;99.90;;;;;;5053146;28;19967;-64
2023/01/08 09:16:35;;;;;;;;;;;10.10;99.90;;;;;;5053144;28;19912;-64
2023/01/08 09:19:02;;;;;;;;;;;10.00;99.90;;;;;;5052289;28;20396;-63
2023/01/08 09:21:27;;;;;;;;;;;10.00;99.90;;;;;;5049266;28;19919;-63
2023/01/08 09:23:53;;;;;;;;;;;10.00;99.90;;;;;;5050985;28;19916;-64
2023/01/08 09:26:18;;;;;;;;;;;9.90;99.90;;;;;;5055079;28;19948;-64
2023/01/08 09:28:43;;;;;;;;;;;9.90;99.90;;;;;;5052740;28;19940;-63
2023/01/08 09:31:09;;;;;;;;;;;9.90;99.90;;;;;;5050986;28;20060;-64
2023/01/08 09:33:34;;;;;;;;;;;9.90;99.90;;;;;;5051279;28;20297;-64
2023/01/08 09:36:00;;;;;;;;;;;9.80;99.90;;;;;;5047768;28;19913;-61
2023/01/08 09:38:25;;;;;;;;;;;9.80;99.90;;;;;;5032570;28;20066;-64
2023/01/08 09:40:55;;;;;;;;;;;9.70;99.90;;;;;;5050202;28;19913;-64
2023/01/08 09:43:22;;;;;;;;;;;9.60;99.90;;;;;;5055143;28;19913;-64
2023/01/08 09:45:49;;;;;;;;;;;9.60;99.90;;;;;;5050986;28;20426;-64
2023/01/08 09:48:15;;;;;;;;;;;9.60;99.90;;;;;;5051780;28;19916;-64
2023/01/08 09:50:41;;;;;;;;;;;9.60;99.90;;;;;;5049989;28;20391;-65
2023/01/08 09:53:11;;;;;;;;;;;9.60;99.90;;;;;;5050945;28;20002;-64
2023/01/08 09:55:38;;;;;;;;;;;9.60;99.90;;;;;;5052105;28;19948;-64
2023/01/08 09:58:05;;;;;;;;;;;9.60;99.90;;;;;;5056904;28;19920;-64
2023/01/08 10:00:32;;;;;;;;;;;9.70;99.90;;;;;;5050990;28;19916;-64
2023/01/08 10:02:58;;;;;;;;;;;9.90;99.90;;;;;;5049656;28;19913;-65
2023/01/08 10:05:24;;;;;;;;;;;10.00;99.90;;;;;;5050550;28;19947;-55
2023/01/08 10:07:50;;;;;;;;;;;10.20;99.90;;;;;;5047380;28;19909;-54
2023/01/08 10:10:28;;;;;;;;;;;10.30;99.90;;;;;;5048454;28;20289;-56
2023/01/08 10:12:53;;;;;;;;;;;10.40;99.90;;;;;;5046268;28;19932;-55
2023/01/08 10:15:20;;;;;;;;;;;10.60;99.90;;;;;;5046308;28;19917;-52
2023/01/08 10:17:50;;;;;;;;;;;10.70;99.90;;;;;;5041292;28;21145;-53
2023/01/08 10:20:18;;;;;;;;;;;10.90;99.90;;;;;;5040639;28;19959;-56
2023/01/08 10:22:43;;;;;;;;;;;11.00;99.90;;;;;;5049729;28;19959;-52
2023/01/08 10:25:11;;;;;;;;;;;11.20;99.90;;;;;;5051370;28;19921;-56
2023/01/08 10:27:56;;;;;;;;;;;11.50;99.90;;;;;;5048807;28;19925;-57
2023/01/08 10:30:23;;;;;;;;;;;11.60;99.90;;;;;;5042177;28;19927;-55
2023/01/08 10:32:50;;;;;;;;;;;11.70;99.90;;;;;;5048867;28;20822;-53
2023/01/08 10:35:17;;;;;;;;;;;11.60;99.90;;;;;;5049207;28;19922;-56
2023/01/08 10:37:45;;;;;;;;;;;11.60;99.90;;;;;;5049914;28;19909;-55
2023/01/08 10:40:28;;;;;;;;;;;11.60;99.90;;;;;;5045791;28;19919;-56
2023/01/08 10:42:54;;;;;;;;;;;11.60;99.90;;;;;;5047814;28;19920;-54
2023/01/08 10:45:24;;;;;;;;;;;11.50;99.90;;;;;;5046436;28;19967;-55
2023/01/08 10:47:51;;;;;;;;;;;11.50;99.90;;;;;;5047612;28;20437;-57
2023/01/08 10:50:21;;;;;;;;;;;11.60;99.90;;;;;;5049825;28;19917;-56
2023/01/08 10:52:53;;;;;;;;;;;11.60;99.90;;;;;;5047955;28;20133;-52
2023/01/08 10:55:26;;;;;;;;;;;11.60;99.90;;;;;;5046767;28;19917;-54
2023/01/08 10:57:59;;;;;;;;;;;11.60;99.90;;;;;;5049583;28;20001;-56
2023/01/08 11:00:26;;;;;;;;;;;11.50;99.90;;;;;;5054454;28;19927;-57
2023/01/08 11:02:51;;;;;;;;;;;11.60;99.90;;;;;;5047811;28;20015;-56
2023/01/08 11:05:17;;;;;;;;;;;11.60;99.90;;;;;;5049812;28;20004;-52
2023/01/08 11:07:46;;;;;;;;;;;11.60;99.90;;;;;;5047483;28;19959;-57
2023/01/08 11:10:22;;;;;;;;;;;11.70;99.90;;;;;;5048771;28;20012;-57
2023/01/08 11:12:53;;;;;;;;;;;11.60;99.90;;;;;;5053495;28;19971;-57
2023/01/08 11:15:21;;;;;;;;;;;11.70;99.90;;;;;;5043538;28;19925;-57
2023/01/08 11:17:46;;;;;;;;;;;11.70;99.90;;;;;;5036440;28;19991;-55
2023/01/08 11:20:23;;;;;;;;;;;11.70;99.90;;;;;;5041286;28;20004;-57
2023/01/08 11:22:49;;;;;;;;;;;11.70;99.90;;;;;;5043837;28;20534;-54
2023/01/08 11:25:21;;;;;;;;;;;11.70;99.90;;;;;;5051289;28;20352;-56
2023/01/08 11:27:47;;;;;;;;;;;11.70;99.90;;;;;;5052628;28;19917;-52
2023/01/08 11:30:13;;;;;;;;;;;11.70;99.90;;;;;;5044008;28;19983;-55
2023/01/08 11:32:53;;;;;;;;;;;11.70;99.90;;;;;;5037753;28;20027;-55
2023/01/08 11:35:19;;;;;;;;;;;11.70;99.90;;;;;;5031681;28;19972;-54
2023/01/08 11:37:47;;;;;;;;;;;11.60;99.90;;;;;;5050959;28;19916;-56
2023/01/08 11:40:14;;;;;;;;;;;11.60;99.90;;;;;;5044336;28;20017;-55
2023/01/08 11:42:57;;;;;;;;;;;11.60;99.90;;;;;;5043102;28;19928;-57
2023/01/08 11:45:41;;;;;;;;;;;11.60;99.90;;;;;;5043373;28;19916;-57
2023/01/08 11:48:13;;;;;;;;;;;11.60;99.90;;;;;;5045446;28;19916;-57
2023/01/08 11:51:02;;;;;;;;;;;11.70;99.90;;;;;;5048991;28;19913;-57
2023/01/08 11:53:33;;;;;;;;;;;11.60;99.90;;;;;;5051445;28;19913;-57
2023/01/08 11:56:18;;;;;;;;;;;11.60;99.90;;;;;;5052979;28;19917;-55
2023/01/08 11:58:53;;;;;;;;;;;11.50;99.90;;;;;;5048639;28;20059;-56
2023/01/08 12:01:21;;;;;;;;;;;11.50;99.90;;;;;;5052623;28;19920;-56
2023/01/08 12:04:05;;;;;;;;;;;11.50;99.90;;;;;;5048267;28;19912;-57
2023/01/08 12:06:49;;;;;;;;;;;11.30;99.90;;;;;;5048543;28;19928;-57
2023/01/08 12:09:20;;;;;;;;;;;11.30;99.90;;;;;;5036404;28;19931;-57
2023/01/08 12:11:50;;;;;;;;;;;11.00;99.90;;;;;;5044141;28;19921;-56
2023/01/08 12:14:18;;;;;;;;;;;10.90;99.90;;;;;;5049754;28;19924;-56
2023/01/08 12:17:02;;;;;;;;;;;10.90;99.90;;;;;;5053513;28;19959;-56
2023/01/08 12:19:36;;;;;;;;;;;10.90;99.90;;;;;;5050229;28;19912;-57
2023/01/08 12:22:05;;;;;;;;;;;10.80;99.90;;;;;;5045345;28;19942;-56
2023/01/08 12:24:36;;;;;;;;;;;10.80;99.90;;;;;;5050194;28;19921;-56
2023/01/08 12:27:20;;;;;;;;;;;10.70;99.90;;;;;;5048162;28;20007;-55
2023/01/08 12:30:00;;;;;;;;;;;10.70;99.90;;;;;;5050905;28;19928;-56
2023/01/08 12:32:36;;;;;;;;;;;10.60;99.90;;;;;;5050399;28;19913;-53
2023/01/08 12:35:20;;;;;;;;;;;10.50;99.90;;;;;;5044287;28;19940;-56
2023/01/08 12:37:51;;;;;;;;;;;10.50;99.90;;;;;;5050519;28;19921;-57
2023/01/08 12:40:31;;;;;;;;;;;10.50;99.90;;;;;;5050682;28;19921;-56
2023/01/08 12:42:59;;;;;;;;;;;10.50;99.90;;;;;;5052433;28;19920;-54
2023/01/08 12:45:39;;;;;;;;;;;10.80;99.90;;;;;;5031109;28;20510;-56
2023/01/08 12:48:06;;;;;;;;;;;11.10;99.90;;;;;;5048700;28;20352;-57
2023/01/08 12:50:35;;;;;;;;;;;11.20;99.90;;;;;;5048963;28;19913;-55
2023/01/08 12:53:10;;;;;;;;;;;11.10;99.90;;;;;;5046489;28;20366;-57
2023/01/08 12:55:39;;;;;;;;;;;11.00;99.90;;;;;;5049992;28;19925;-56
2023/01/08 12:58:07;;;;;;;;;;;11.00;99.90;;;;;;5050284;28;20000;-55
2023/01/08 13:00:38;;;;;;;;;;;11.30;99.90;;;;;;5047897;28;19913;-52
2023/01/08 13:03:05;;;;;;;;;;;11.70;99.90;;;;;;5051566;28;19909;-55
2023/01/08 13:05:30;;;;;;;;;;;11.80;99.90;;;;;;5045528;28;19916;-52
2023/01/08 13:08:06;;;;;;;;;;;11.60;99.90;;;;;;5057677;28;19992;-51
2023/01/08 13:10:52;;;;;;;;;;;11.50;99.90;;;;;;5047794;28;20004;-53
2023/01/08 13:13:25;;;;;;;;;;;11.30;99.90;;;;;;5024042;28;19913;-56
2023/01/08 13:15:51;;;;;;;;;;;11.20;99.90;;;;;;5043000;28;19979;-56
2023/01/08 13:18:18;;;;;;;;;;;11.10;99.90;;;;;;5054428;28;20333;-55
2023/01/08 13:20:57;;;;;;;;;;;11.00;99.90;;;;;;5052542;28;19917;-52
2023/01/08 13:23:24;;;;;;;;;;;11.00;99.90;;;;;;5054807;28;19924;-55
2023/01/08 13:25:51;;;;;;;;;;;11.00;99.90;;;;;;5048010;28;19940;-58
2023/01/08 13:28:25;;;;;;;;;;;11.00;99.90;;;;;;5046603;28;19921;-56
2023/01/08 13:30:52;;;;;;;;;;;11.00;99.90;;;;;;5047966;28;20286;-54
2023/01/08 13:33:38;;;;;;;;;;;11.00;99.90;;;;;;5050743;28;19913;-54
2023/01/08 13:36:13;;;;;;;;;;;10.90;99.90;;;;;;5045336;28;20031;-57
2023/01/08 13:38:39;;;;;;;;;;;10.90;99.90;;;;;;5047473;28;19962;-57
2023/01/08 13:41:04;;;;;;;;;;;10.90;99.90;;;;;;5057299;28;19913;-54
2023/01/08 13:43:35;;;;;;;;;;;10.90;99.90;;;;;;5049135;28;20393;-54
2023/01/08 13:46:00;;;;;;;;;;;10.90;99.90;;;;;;5048096;28;20436;-51
2023/01/08 13:48:27;;;;;;;;;;;11.00;99.90;;;;;;5053288;28;19970;-56
2023/01/08 13:50:53;;;;;;;;;;;11.10;99.90;;;;;;5049553;28;19913;-57
2023/01/08 13:53:19;;;;;;;;;;;11.30;99.90;;;;;;5049363;28;19935;-53
2023/01/08 13:56:01;;;;;;;;;;;11.40;99.90;;;;;;5050164;28;19917;-57
2023/01/08 13:58:36;;;;;;;;;;;11.30;99.90;;;;;;5028980;28;19913;-57
2023/01/08 14:01:03;;;;;;;;;;;11.30;99.90;;;;;;5051663;28;20421;-56
2023/01/08 14:03:28;;;;;;;;;;;11.40;99.90;;;;;;5054611;28;20363;-56
2023/01/08 14:06:12;;;;;;;;;;;11.40;99.90;;;;;;5054174;28;19920;-55
2023/01/08 14:08:51;;;;;;;;;;;11.40;99.90;;;;;;5051376;28;19913;-56
2023/01/08 14:11:17;;;;;;;;;;;11.40;99.90;;;;;;5049247;28;19919;-57
2023/01/08 14:13:42;;;;;;;;;;;11.30;99.90;;;;;;5046914;28;19913;-54
2023/01/08 14:16:10;;;;;;;;;;;11.30;99.90;;;;;;5048376;28;19917;-56
2023/01/08 14:18:38;;;;;;;;;;;11.20;99.90;;;;;;5105193;22;19924;-55
2023/01/08 14:21:04;;;;;;;;;;;11.10;99.90;;;;;;5087105;28;19919;-55
2023/01/08 14:23:32;;;;;;;;;;;11.20;99.90;;;;;;5086719;28;20347;-61
2023/01/08 14:26:00;;;;;;;;;;;11.10;99.90;;;;;;5084943;28;19916;-59
2023/01/08 14:28:26;;;;;;;;;;;11.10;99.90;;;;;;5090181;28;20399;-58